sensor_id;sensor_type;location;lat;lon;timestamp;P1;durP1;ratioP1;P2;durP2;ratioP2
44664;SDS011;30382;48.802;9.388;2022-09-24T00:00:34;6.70;;;5.60;;
44664;SDS011;30382;48.802;9.388;2022-09-24T00:03:19;5.23;;;4.90;;
44664;SDS011;30382;48.802;9.388;2022-09-24T00:06:04;5.50;;;5.00;;
44664;SDS011;30382;48.802;9.388;2022-09-24T00:08:50;7.03;;;6.00;;
44664;SDS011;30382;48.802;9.388;2022-09-24T00:11:34;5.40;;;5.00;;
44664;SDS011;30382;48.802;9.388;2022-09-24T00:14:19;5.53;;;5.13;;
44664;SDS011;30382;48.802;9.388;2022-09-24T00:17:03;5.47;;;4.70;;
44664;SDS011;30382;48.802;9.388;2022-09-24T00:19:48;7.40;;;5.10;;
44664;SDS011;30382;48.802;9.388;2022-09-24T00:22:32;7.00;;;5.63;;
44664;SDS011;30382;48.802;9.388;2022-09-24T00:25:16;5.37;;;4.87;;
44664;SDS011;30382;48.802;9.388;2022-09-24T00:28:19;5.87;;;4.80;;
44664;SDS011;30382;48.802;9.388;2022-09-24T00:31:05;6.00;;;5.50;;
44664;SDS011;30382;48.802;9.388;2022-09-24T00:33:50;5.63;;;5.03;;
44664;SDS011;30382;48.802;9.388;2022-09-24T00:36:35;5.47;;;4.97;;
44664;SDS011;30382;48.802;9.388;2022-09-24T00:39:20;9.33;;;5.10;;
44664;SDS011;30382;48.802;9.388;2022-09-24T00:42:04;5.77;;;5.30;;
44664;SDS011;30382;48.802;9.388;2022-09-24T00:44:50;5.90;;;4.57;;
44664;SDS011;30382;48.802;9.388;2022-09-24T00:47:39;4.87;;;4.47;;
44664;SDS011;30382;48.802;9.388;2022-09-24T00:53:10;5.73;;;5.23;;
44664;SDS011;30382;48.802;9.388;2022-09-24T00:55:56;5.70;;;5.17;;
44664;SDS011;30382;48.802;9.388;2022-09-24T00:58:41;5.83;;;5.10;;
44664;SDS011;30382;48.802;9.388;2022-09-24T01:01:27;4.90;;;4.60;;
44664;SDS011;30382;48.802;9.388;2022-09-24T01:04:13;5.63;;;5.20;;
44664;SDS011;30382;48.802;9.388;2022-09-24T01:06:59;5.07;;;4.67;;
44664;SDS011;30382;48.802;9.388;2022-09-24T01:09:44;5.67;;;5.17;;
44664;SDS011;30382;48.802;9.388;2022-09-24T01:12:42;7.27;;;6.27;;
44664;SDS011;30382;48.802;9.388;2022-09-24T01:15:33;5.30;;;4.80;;
44664;SDS011;30382;48.802;9.388;2022-09-24T01:35:46;6.33;;;5.73;;
44664;SDS011;30382;48.802;9.388;2022-09-24T01:40:53;5.43;;;4.97;;
44664;SDS011;30382;48.802;9.388;2022-09-24T01:43:38;6.40;;;5.80;;
44664;SDS011;30382;48.802;9.388;2022-09-24T01:46:22;6.73;;;6.23;;
44664;SDS011;30382;48.802;9.388;2022-09-24T01:49:07;6.53;;;5.93;;
44664;SDS011;30382;48.802;9.388;2022-09-24T01:51:53;6.10;;;5.60;;
44664;SDS011;30382;48.802;9.388;2022-09-24T01:57:37;7.67;;;5.67;;
44664;SDS011;30382;48.802;9.388;2022-09-24T02:00:23;7.33;;;6.27;;
44664;SDS011;30382;48.802;9.388;2022-09-24T02:03:10;7.50;;;5.90;;
44664;SDS011;30382;48.802;9.388;2022-09-24T02:05:58;7.53;;;6.83;;
44664;SDS011;30382;48.802;9.388;2022-09-24T02:08:45;6.23;;;5.70;;
44664;SDS011;30382;48.802;9.388;2022-09-24T02:11:30;6.03;;;5.53;;
44664;SDS011;30382;48.802;9.388;2022-09-24T02:14:16;6.03;;;5.53;;
44664;SDS011;30382;48.802;9.388;2022-09-24T02:17:01;5.80;;;5.30;;
44664;SDS011;30382;48.802;9.388;2022-09-24T02:19:46;5.80;;;5.30;;
44664;SDS011;30382;48.802;9.388;2022-09-24T02:22:32;6.67;;;5.47;;
44664;SDS011;30382;48.802;9.388;2022-09-24T02:25:19;6.67;;;6.10;;
44664;SDS011;30382;48.802;9.388;2022-09-24T02:28:05;6.70;;;6.07;;
44664;SDS011;30382;48.802;9.388;2022-09-24T02:30:50;7.17;;;6.40;;
44664;SDS011;30382;48.802;9.388;2022-09-24T02:33:37;6.40;;;5.80;;
44664;SDS011;30382;48.802;9.388;2022-09-24T02:36:43;11.90;;;6.20;;
44664;SDS011;30382;48.802;9.388;2022-09-24T02:39:27;6.77;;;6.20;;
44664;SDS011;30382;48.802;9.388;2022-09-24T02:42:12;7.00;;;6.43;;
44664;SDS011;30382;48.802;9.388;2022-09-24T02:44:57;6.50;;;5.90;;
44664;SDS011;30382;48.802;9.388;2022-09-24T02:47:43;8.27;;;7.50;;
44664;SDS011;30382;48.802;9.388;2022-09-24T02:50:27;7.67;;;6.90;;
44664;SDS011;30382;48.802;9.388;2022-09-24T02:53:12;6.57;;;6.07;;
44664;SDS011;30382;48.802;9.388;2022-09-24T02:55:56;7.53;;;6.60;;
44664;SDS011;30382;48.802;9.388;2022-09-24T02:58:43;7.93;;;6.33;;
44664;SDS011;30382;48.802;9.388;2022-09-24T03:01:27;7.27;;;6.57;;
44664;SDS011;30382;48.802;9.388;2022-09-24T03:04:12;7.80;;;7.03;;
44664;SDS011;30382;48.802;9.388;2022-09-24T03:06:56;7.00;;;6.40;;
44664;SDS011;30382;48.802;9.388;2022-09-24T03:09:41;6.73;;;6.23;;
44664;SDS011;30382;48.802;9.388;2022-09-24T03:12:25;7.37;;;6.67;;
44664;SDS011;30382;48.802;9.388;2022-09-24T03:15:09;8.13;;;7.27;;
44664;SDS011;30382;48.802;9.388;2022-09-24T03:17:54;7.30;;;6.60;;
44664;SDS011;30382;48.802;9.388;2022-09-24T03:20:38;8.67;;;7.87;;
44664;SDS011;30382;48.802;9.388;2022-09-24T03:23:23;8.33;;;7.53;;
44664;SDS011;30382;48.802;9.388;2022-09-24T03:26:07;8.50;;;7.37;;
44664;SDS011;30382;48.802;9.388;2022-09-24T03:28:51;8.90;;;7.47;;
44664;SDS011;30382;48.802;9.388;2022-09-24T03:31:36;8.63;;;7.93;;
44664;SDS011;30382;48.802;9.388;2022-09-24T03:34:20;8.57;;;7.50;;
44664;SDS011;30382;48.802;9.388;2022-09-24T03:37:04;8.07;;;7.27;;
44664;SDS011;30382;48.802;9.388;2022-09-24T03:39:49;8.67;;;7.80;;
44664;SDS011;30382;48.802;9.388;2022-09-24T03:42:33;8.97;;;8.17;;
44664;SDS011;30382;48.802;9.388;2022-09-24T03:45:17;8.30;;;7.60;;
44664;SDS011;30382;48.802;9.388;2022-09-24T03:48:02;9.33;;;8.37;;
44664;SDS011;30382;48.802;9.388;2022-09-24T03:50:46;9.40;;;8.27;;
44664;SDS011;30382;48.802;9.388;2022-09-24T03:53:31;8.13;;;7.37;;
44664;SDS011;30382;48.802;9.388;2022-09-24T03:56:15;9.10;;;8.30;;
44664;SDS011;30382;48.802;9.388;2022-09-24T03:59:00;8.30;;;7.60;;
44664;SDS011;30382;48.802;9.388;2022-09-24T04:01:44;11.73;;;8.27;;
44664;SDS011;30382;48.802;9.388;2022-09-24T04:04:28;8.93;;;7.93;;
44664;SDS011;30382;48.802;9.388;2022-09-24T04:07:12;9.10;;;8.23;;
44664;SDS011;30382;48.802;9.388;2022-09-24T04:09:57;8.30;;;7.50;;
44664;SDS011;30382;48.802;9.388;2022-09-24T04:12:41;7.77;;;7.10;;
44664;SDS011;30382;48.802;9.388;2022-09-24T04:15:27;9.23;;;8.30;;
44664;SDS011;30382;48.802;9.388;2022-09-24T04:18:11;9.87;;;8.87;;
44664;SDS011;30382;48.802;9.388;2022-09-24T04:20:59;9.37;;;8.10;;
44664;SDS011;30382;48.802;9.388;2022-09-24T04:23:43;10.37;;;8.17;;
44664;SDS011;30382;48.802;9.388;2022-09-24T04:26:27;9.30;;;8.40;;
44664;SDS011;30382;48.802;9.388;2022-09-24T04:29:12;10.00;;;9.07;;
44664;SDS011;30382;48.802;9.388;2022-09-24T04:31:56;9.90;;;9.00;;
44664;SDS011;30382;48.802;9.388;2022-09-24T04:34:40;11.10;;;9.87;;
44664;SDS011;30382;48.802;9.388;2022-09-24T04:37:24;17.73;;;13.27;;
44664;SDS011;30382;48.802;9.388;2022-09-24T04:40:09;10.10;;;9.10;;
44664;SDS011;30382;48.802;9.388;2022-09-24T04:42:55;12.10;;;10.90;;
44664;SDS011;30382;48.802;9.388;2022-09-24T04:45:40;11.10;;;9.70;;
44664;SDS011;30382;48.802;9.388;2022-09-24T04:48:27;11.03;;;9.93;;
44664;SDS011;30382;48.802;9.388;2022-09-24T04:51:11;12.50;;;11.30;;
44664;SDS011;30382;48.802;9.388;2022-09-24T04:53:55;10.70;;;9.60;;
44664;SDS011;30382;48.802;9.388;2022-09-24T04:56:39;10.03;;;9.13;;
44664;SDS011;30382;48.802;9.388;2022-09-24T04:59:24;11.10;;;8.80;;
44664;SDS011;30382;48.802;9.388;2022-09-24T05:02:08;8.90;;;8.10;;
44664;SDS011;30382;48.802;9.388;2022-09-24T05:04:52;9.70;;;8.70;;
44664;SDS011;30382;48.802;9.388;2022-09-24T05:07:37;9.53;;;8.70;;
44664;SDS011;30382;48.802;9.388;2022-09-24T05:10:22;8.37;;;7.57;;
44664;SDS011;30382;48.802;9.388;2022-09-24T05:13:07;9.70;;;7.77;;
44664;SDS011;30382;48.802;9.388;2022-09-24T05:15:52;9.50;;;8.70;;
44664;SDS011;30382;48.802;9.388;2022-09-24T05:18:36;9.00;;;8.10;;
44664;SDS011;30382;48.802;9.388;2022-09-24T05:21:20;9.27;;;8.30;;
44664;SDS011;30382;48.802;9.388;2022-09-24T05:24:05;9.80;;;8.47;;
44664;SDS011;30382;48.802;9.388;2022-09-24T05:26:49;9.70;;;8.70;;
44664;SDS011;30382;48.802;9.388;2022-09-24T05:29:53;9.50;;;8.60;;
44664;SDS011;30382;48.802;9.388;2022-09-24T05:32:37;11.93;;;9.70;;
44664;SDS011;30382;48.802;9.388;2022-09-24T05:35:22;10.07;;;9.07;;
44664;SDS011;30382;48.802;9.388;2022-09-24T05:38:06;10.33;;;9.43;;
44664;SDS011;30382;48.802;9.388;2022-09-24T05:40:51;9.23;;;8.43;;
44664;SDS011;30382;48.802;9.388;2022-09-24T05:43:35;9.23;;;8.30;;
44664;SDS011;30382;48.802;9.388;2022-09-24T05:46:19;9.33;;;8.43;;
44664;SDS011;30382;48.802;9.388;2022-09-24T05:49:04;10.87;;;9.23;;
44664;SDS011;30382;48.802;9.388;2022-09-24T05:51:48;8.83;;;8.03;;
44664;SDS011;30382;48.802;9.388;2022-09-24T05:54:33;12.57;;;10.27;;
44664;SDS011;30382;48.802;9.388;2022-09-24T05:57:17;10.90;;;9.10;;
44664;SDS011;30382;48.802;9.388;2022-09-24T06:00:03;10.83;;;9.73;;
44664;SDS011;30382;48.802;9.388;2022-09-24T06:03:00;10.07;;;9.07;;
44664;SDS011;30382;48.802;9.388;2022-09-24T06:05:45;11.43;;;10.20;;
44664;SDS011;30382;48.802;9.388;2022-09-24T06:08:30;10.63;;;9.63;;
44664;SDS011;30382;48.802;9.388;2022-09-24T06:11:16;10.73;;;9.60;;
44664;SDS011;30382;48.802;9.388;2022-09-24T06:14:01;10.90;;;10.00;;
44664;SDS011;30382;48.802;9.388;2022-09-24T06:16:46;10.90;;;9.80;;
44664;SDS011;30382;48.802;9.388;2022-09-24T06:19:30;10.57;;;9.67;;
44664;SDS011;30382;48.802;9.388;2022-09-24T06:22:15;11.03;;;9.80;;
44664;SDS011;30382;48.802;9.388;2022-09-24T06:25:00;10.70;;;9.63;;
44664;SDS011;30382;48.802;9.388;2022-09-24T06:27:44;11.43;;;10.33;;
44664;SDS011;30382;48.802;9.388;2022-09-24T06:30:31;18.67;;;11.40;;
44664;SDS011;30382;48.802;9.388;2022-09-24T06:33:15;12.03;;;9.40;;
44664;SDS011;30382;48.802;9.388;2022-09-24T06:36:00;10.10;;;9.17;;
44664;SDS011;30382;48.802;9.388;2022-09-24T06:38:49;9.67;;;8.87;;
44664;SDS011;30382;48.802;9.388;2022-09-24T06:41:33;10.10;;;9.13;;
44664;SDS011;30382;48.802;9.388;2022-09-24T06:44:17;10.80;;;9.30;;
44664;SDS011;30382;48.802;9.388;2022-09-24T06:47:02;10.27;;;9.20;;
44664;SDS011;30382;48.802;9.388;2022-09-24T06:49:46;10.60;;;9.60;;
44664;SDS011;30382;48.802;9.388;2022-09-24T06:52:33;10.67;;;9.67;;
44664;SDS011;30382;48.802;9.388;2022-09-24T06:55:17;11.03;;;9.93;;
44664;SDS011;30382;48.802;9.388;2022-09-24T07:00:52;11.90;;;9.53;;
44664;SDS011;30382;48.802;9.388;2022-09-24T07:03:37;11.80;;;8.80;;
44664;SDS011;30382;48.802;9.388;2022-09-24T07:06:22;10.87;;;9.10;;
44664;SDS011;30382;48.802;9.388;2022-09-24T07:09:06;11.03;;;10.03;;
44664;SDS011;30382;48.802;9.388;2022-09-24T07:11:51;12.03;;;10.93;;
44664;SDS011;30382;48.802;9.388;2022-09-24T07:14:35;11.70;;;10.50;;
44664;SDS011;30382;48.802;9.388;2022-09-24T07:17:20;10.30;;;9.20;;
44664;SDS011;30382;48.802;9.388;2022-09-24T07:20:04;10.00;;;9.10;;
44664;SDS011;30382;48.802;9.388;2022-09-24T07:22:48;9.43;;;8.47;;
44664;SDS011;30382;48.802;9.388;2022-09-24T07:25:33;9.83;;;8.83;;
44664;SDS011;30382;48.802;9.388;2022-09-24T07:28:18;16.07;;;9.30;;
44664;SDS011;30382;48.802;9.388;2022-09-24T07:31:02;10.83;;;9.10;;
44664;SDS011;30382;48.802;9.388;2022-09-24T07:33:47;9.03;;;8.20;;
44664;SDS011;30382;48.802;9.388;2022-09-24T07:36:31;8.87;;;8.03;;
44664;SDS011;30382;48.802;9.388;2022-09-24T07:39:15;10.50;;;8.93;;
44664;SDS011;30382;48.802;9.388;2022-09-24T07:42:00;8.97;;;8.10;;
44664;SDS011;30382;48.802;9.388;2022-09-24T07:44:45;8.80;;;8.00;;
44664;SDS011;30382;48.802;9.388;2022-09-24T07:47:31;12.30;;;9.10;;
44664;SDS011;30382;48.802;9.388;2022-09-24T07:50:16;11.53;;;10.07;;
44664;SDS011;30382;48.802;9.388;2022-09-24T07:53:01;11.07;;;9.97;;
44664;SDS011;30382;48.802;9.388;2022-09-24T07:55:46;13.50;;;12.17;;
44664;SDS011;30382;48.802;9.388;2022-09-24T07:58:30;10.97;;;9.87;;
44664;SDS011;30382;48.802;9.388;2022-09-24T08:01:15;11.60;;;10.40;;
44664;SDS011;30382;48.802;9.388;2022-09-24T08:04:00;13.23;;;11.20;;
44664;SDS011;30382;48.802;9.388;2022-09-24T08:06:47;15.77;;;11.57;;
44664;SDS011;30382;48.802;9.388;2022-09-24T08:09:32;18.93;;;14.63;;
44664;SDS011;30382;48.802;9.388;2022-09-24T08:12:16;27.63;;;20.60;;
44664;SDS011;30382;48.802;9.388;2022-09-24T08:15:01;16.50;;;11.97;;
44664;SDS011;30382;48.802;9.388;2022-09-24T08:17:45;11.67;;;10.50;;
44664;SDS011;30382;48.802;9.388;2022-09-24T08:20:30;10.40;;;9.40;;
44664;SDS011;30382;48.802;9.388;2022-09-24T08:23:16;10.43;;;9.20;;
44664;SDS011;30382;48.802;9.388;2022-09-24T08:26:00;9.07;;;8.27;;
44664;SDS011;30382;48.802;9.388;2022-09-24T08:28:47;10.43;;;9.13;;
44664;SDS011;30382;48.802;9.388;2022-09-24T08:31:32;12.10;;;8.80;;
44664;SDS011;30382;48.802;9.388;2022-09-24T08:34:19;9.73;;;8.80;;
44664;SDS011;30382;48.802;9.388;2022-09-24T08:37:04;9.60;;;8.17;;
44664;SDS011;30382;48.802;9.388;2022-09-24T08:39:51;12.30;;;8.60;;
44664;SDS011;30382;48.802;9.388;2022-09-24T08:42:39;8.90;;;8.10;;
44664;SDS011;30382;48.802;9.388;2022-09-24T08:45:26;9.47;;;8.50;;
44664;SDS011;30382;48.802;9.388;2022-09-24T08:48:33;8.60;;;7.80;;
44664;SDS011;30382;48.802;9.388;2022-09-24T08:51:20;9.33;;;8.43;;
44664;SDS011;30382;48.802;9.388;2022-09-24T08:54:06;8.30;;;7.70;;
44664;SDS011;30382;48.802;9.388;2022-09-24T08:56:52;9.57;;;8.47;;
44664;SDS011;30382;48.802;9.388;2022-09-24T08:59:38;8.93;;;8.03;;
44664;SDS011;30382;48.802;9.388;2022-09-24T09:08:01;10.43;;;9.43;;
44664;SDS011;30382;48.802;9.388;2022-09-24T09:10:46;12.33;;;10.77;;
44664;SDS011;30382;48.802;9.388;2022-09-24T09:13:32;12.53;;;9.30;;
44664;SDS011;30382;48.802;9.388;2022-09-24T09:16:24;9.13;;;8.27;;
44664;SDS011;30382;48.802;9.388;2022-09-24T09:19:10;8.93;;;8.20;;
44664;SDS011;30382;48.802;9.388;2022-09-24T09:21:56;10.60;;;9.40;;
44664;SDS011;30382;48.802;9.388;2022-09-24T09:24:46;10.03;;;9.20;;
44664;SDS011;30382;48.802;9.388;2022-09-24T09:27:31;8.33;;;7.53;;
44664;SDS011;30382;48.802;9.388;2022-09-24T09:30:16;10.23;;;8.97;;
44664;SDS011;30382;48.802;9.388;2022-09-24T09:41:45;10.80;;;7.83;;
44664;SDS011;30382;48.802;9.388;2022-09-24T09:44:37;10.63;;;8.27;;
44664;SDS011;30382;48.802;9.388;2022-09-24T09:50:17;9.17;;;7.73;;
44664;SDS011;30382;48.802;9.388;2022-09-24T09:53:05;10.90;;;7.20;;
44664;SDS011;30382;48.802;9.388;2022-09-24T09:55:53;8.73;;;7.90;;
44664;SDS011;30382;48.802;9.388;2022-09-24T09:58:43;7.27;;;6.70;;
44664;SDS011;30382;48.802;9.388;2022-09-24T10:01:31;5.73;;;5.23;;
44664;SDS011;30382;48.802;9.388;2022-09-24T10:05:00;4.93;;;4.53;;
44664;SDS011;30382;48.802;9.388;2022-09-24T10:07:24;5.63;;;5.10;;
44664;SDS011;30382;48.802;9.388;2022-09-24T10:10:16;4.33;;;4.03;;
44664;SDS011;30382;48.802;9.388;2022-09-24T10:13:11;5.63;;;4.50;;
44664;SDS011;30382;48.802;9.388;2022-09-24T10:15:57;4.13;;;3.83;;
44664;SDS011;30382;48.802;9.388;2022-09-24T10:18:46;5.37;;;4.87;;
44664;SDS011;30382;48.802;9.388;2022-09-24T10:21:32;4.83;;;4.53;;
44664;SDS011;30382;48.802;9.388;2022-09-24T10:24:18;5.97;;;5.40;;
44664;SDS011;30382;48.802;9.388;2022-09-24T10:27:09;5.47;;;5.07;;
44664;SDS011;30382;48.802;9.388;2022-09-24T10:29:53;4.87;;;4.47;;
44664;SDS011;30382;48.802;9.388;2022-09-24T10:32:58;5.10;;;4.33;;
44664;SDS011;30382;48.802;9.388;2022-09-24T10:35:42;4.50;;;4.10;;
44664;SDS011;30382;48.802;9.388;2022-09-24T10:38:27;4.13;;;3.83;;
44664;SDS011;30382;48.802;9.388;2022-09-24T10:41:15;4.03;;;3.73;;
44664;SDS011;30382;48.802;9.388;2022-09-24T10:44:02;4.00;;;3.70;;
44664;SDS011;30382;48.802;9.388;2022-09-24T10:46:49;5.83;;;4.00;;
44664;SDS011;30382;48.802;9.388;2022-09-24T10:49:43;4.10;;;3.77;;
44664;SDS011;30382;48.802;9.388;2022-09-24T11:06:39;5.33;;;4.00;;
44664;SDS011;30382;48.802;9.388;2022-09-24T11:09:39;5.20;;;4.07;;
44664;SDS011;30382;48.802;9.388;2022-09-24T11:12:45;4.00;;;3.30;;
44664;SDS011;30382;48.802;9.388;2022-09-24T11:18:40;6.07;;;4.37;;
44664;SDS011;30382;48.802;9.388;2022-09-24T11:38:47;3.30;;;3.00;;
44664;SDS011;30382;48.802;9.388;2022-09-24T11:41:55;3.67;;;3.40;;
44664;SDS011;30382;48.802;9.388;2022-09-24T11:50:17;2.63;;;2.43;;
44664;SDS011;30382;48.802;9.388;2022-09-24T11:56:01;2.30;;;2.20;;
44664;SDS011;30382;48.802;9.388;2022-09-24T11:58:54;1.70;;;1.60;;
44664;SDS011;30382;48.802;9.388;2022-09-24T12:01:53;2.07;;;1.87;;
44664;SDS011;30382;48.802;9.388;2022-09-24T12:04:49;2.40;;;2.20;;
44664;SDS011;30382;48.802;9.388;2022-09-24T12:07:41;3.90;;;3.33;;
44664;SDS011;30382;48.802;9.388;2022-09-24T12:10:32;2.17;;;1.77;;
44664;SDS011;30382;48.802;9.388;2022-09-24T12:13:19;3.03;;;2.73;;
44664;SDS011;30382;48.802;9.388;2022-09-24T12:16:09;2.10;;;2.00;;
44664;SDS011;30382;48.802;9.388;2022-09-24T12:21:57;2.30;;;2.10;;
44664;SDS011;30382;48.802;9.388;2022-09-24T12:24:46;2.90;;;2.70;;
44664;SDS011;30382;48.802;9.388;2022-09-24T12:27:33;3.53;;;2.37;;
44664;SDS011;30382;48.802;9.388;2022-09-24T12:33:34;3.30;;;3.10;;
44664;SDS011;30382;48.802;9.388;2022-09-24T12:36:34;4.07;;;3.77;;
44664;SDS011;30382;48.802;9.388;2022-09-24T12:39:21;5.20;;;2.97;;
44664;SDS011;30382;48.802;9.388;2022-09-24T12:42:07;2.93;;;2.73;;
44664;SDS011;30382;48.802;9.388;2022-09-24T12:44:54;2.80;;;2.60;;
44664;SDS011;30382;48.802;9.388;2022-09-24T12:47:48;3.07;;;2.77;;
44664;SDS011;30382;48.802;9.388;2022-09-24T12:50:34;4.63;;;2.90;;
44664;SDS011;30382;48.802;9.388;2022-09-24T12:53:20;4.80;;;3.47;;
44664;SDS011;30382;48.802;9.388;2022-09-24T12:56:08;5.60;;;4.63;;
44664;SDS011;30382;48.802;9.388;2022-09-24T12:58:53;3.20;;;2.93;;
44664;SDS011;30382;48.802;9.388;2022-09-24T13:01:38;5.03;;;3.80;;
44664;SDS011;30382;48.802;9.388;2022-09-24T13:04:27;4.00;;;3.50;;
44664;SDS011;30382;48.802;9.388;2022-09-24T13:07:25;6.47;;;4.17;;
44664;SDS011;30382;48.802;9.388;2022-09-24T13:12:56;4.20;;;3.90;;
44664;SDS011;30382;48.802;9.388;2022-09-24T13:15:40;3.63;;;3.33;;
44664;SDS011;30382;48.802;9.388;2022-09-24T13:18:25;7.60;;;4.93;;
44664;SDS011;30382;48.802;9.388;2022-09-24T13:21:17;5.20;;;4.70;;
44664;SDS011;30382;48.802;9.388;2022-09-24T13:24:09;4.03;;;3.63;;
44664;SDS011;30382;48.802;9.388;2022-09-24T13:26:53;4.40;;;4.00;;
44664;SDS011;30382;48.802;9.388;2022-09-24T13:29:38;4.50;;;4.10;;
44664;SDS011;30382;48.802;9.388;2022-09-24T13:32:23;5.13;;;4.63;;
44664;SDS011;30382;48.802;9.388;2022-09-24T13:35:10;4.43;;;4.13;;
44664;SDS011;30382;48.802;9.388;2022-09-24T13:38:17;5.00;;;3.90;;
44664;SDS011;30382;48.802;9.388;2022-09-24T13:41:18;3.97;;;3.63;;
44664;SDS011;30382;48.802;9.388;2022-09-24T13:47:13;5.03;;;4.53;;
44664;SDS011;30382;48.802;9.388;2022-09-24T13:50:17;6.73;;;6.03;;
44664;SDS011;30382;48.802;9.388;2022-09-24T13:56:00;14.73;;;9.80;;
44664;SDS011;30382;48.802;9.388;2022-09-24T13:58:46;5.40;;;4.90;;
44664;SDS011;30382;48.802;9.388;2022-09-24T14:01:33;6.47;;;5.87;;
44664;SDS011;30382;48.802;9.388;2022-09-24T14:04:19;9.80;;;7.27;;
44664;SDS011;30382;48.802;9.388;2022-09-24T14:07:04;6.30;;;4.00;;
44664;SDS011;30382;48.802;9.388;2022-09-24T14:09:48;4.87;;;4.27;;
44664;SDS011;30382;48.802;9.388;2022-09-24T14:12:34;6.80;;;5.00;;
44664;SDS011;30382;48.802;9.388;2022-09-24T14:15:18;4.70;;;4.30;;
44664;SDS011;30382;48.802;9.388;2022-09-24T14:18:03;3.80;;;3.53;;
44664;SDS011;30382;48.802;9.388;2022-09-24T14:21:09;3.63;;;3.33;;
44664;SDS011;30382;48.802;9.388;2022-09-24T14:23:55;3.57;;;3.27;;
44664;SDS011;30382;48.802;9.388;2022-09-24T14:26:41;3.97;;;3.67;;
44664;SDS011;30382;48.802;9.388;2022-09-24T14:29:27;4.73;;;4.33;;
44664;SDS011;30382;48.802;9.388;2022-09-24T14:32:25;3.77;;;3.47;;
44664;SDS011;30382;48.802;9.388;2022-09-24T14:38:06;4.60;;;4.17;;
44664;SDS011;30382;48.802;9.388;2022-09-24T14:40:54;3.50;;;3.20;;
44664;SDS011;30382;48.802;9.388;2022-09-24T14:46:28;4.13;;;3.47;;
44664;SDS011;30382;48.802;9.388;2022-09-24T14:49:19;4.43;;;4.03;;
44664;SDS011;30382;48.802;9.388;2022-09-24T14:52:03;6.00;;;5.40;;
44664;SDS011;30382;48.802;9.388;2022-09-24T14:54:48;5.87;;;4.53;;
44664;SDS011;30382;48.802;9.388;2022-09-24T14:57:43;5.03;;;4.53;;
44664;SDS011;30382;48.802;9.388;2022-09-24T15:00:33;5.20;;;4.70;;
44664;SDS011;30382;48.802;9.388;2022-09-24T15:03:21;4.60;;;4.30;;
44664;SDS011;30382;48.802;9.388;2022-09-24T15:06:13;4.00;;;3.70;;
44664;SDS011;30382;48.802;9.388;2022-09-24T15:09:03;4.90;;;3.67;;
44664;SDS011;30382;48.802;9.388;2022-09-24T15:11:48;5.40;;;4.67;;
44664;SDS011;30382;48.802;9.388;2022-09-24T15:14:32;5.77;;;5.23;;
44664;SDS011;30382;48.802;9.388;2022-09-24T15:17:21;6.30;;;5.70;;
44664;SDS011;30382;48.802;9.388;2022-09-24T15:20:07;8.53;;;6.50;;
44664;SDS011;30382;48.802;9.388;2022-09-24T15:22:52;8.43;;;5.97;;
44664;SDS011;30382;48.802;9.388;2022-09-24T15:25:36;14.27;;;10.03;;
44664;SDS011;30382;48.802;9.388;2022-09-24T15:28:22;11.00;;;7.23;;
44664;SDS011;30382;48.802;9.388;2022-09-24T15:31:10;6.30;;;5.30;;
44664;SDS011;30382;48.802;9.388;2022-09-24T15:33:54;5.23;;;4.73;;
44664;SDS011;30382;48.802;9.388;2022-09-24T15:36:41;6.33;;;5.77;;
44664;SDS011;30382;48.802;9.388;2022-09-24T15:39:26;5.50;;;4.63;;
44664;SDS011;30382;48.802;9.388;2022-09-24T15:42:11;4.13;;;3.70;;
44664;SDS011;30382;48.802;9.388;2022-09-24T15:44:56;5.40;;;4.47;;
44664;SDS011;30382;48.802;9.388;2022-09-24T15:47:40;5.73;;;4.50;;
44664;SDS011;30382;48.802;9.388;2022-09-24T15:50:25;5.60;;;5.10;;
44664;SDS011;30382;48.802;9.388;2022-09-24T15:53:19;5.80;;;4.90;;
44664;SDS011;30382;48.802;9.388;2022-09-24T15:56:04;6.30;;;5.10;;
44664;SDS011;30382;48.802;9.388;2022-09-24T15:58:49;6.10;;;5.37;;
44664;SDS011;30382;48.802;9.388;2022-09-24T16:01:34;5.03;;;4.63;;
44664;SDS011;30382;48.802;9.388;2022-09-24T16:04:18;5.30;;;4.77;;
44664;SDS011;30382;48.802;9.388;2022-09-24T16:07:02;5.67;;;5.20;;
44664;SDS011;30382;48.802;9.388;2022-09-24T16:09:47;6.40;;;5.90;;
44664;SDS011;30382;48.802;9.388;2022-09-24T16:12:31;5.40;;;4.90;;
44664;SDS011;30382;48.802;9.388;2022-09-24T16:15:16;5.20;;;4.80;;
44664;SDS011;30382;48.802;9.388;2022-09-24T16:18:00;5.00;;;4.60;;
44664;SDS011;30382;48.802;9.388;2022-09-24T16:20:45;5.20;;;4.63;;
44664;SDS011;30382;48.802;9.388;2022-09-24T16:23:30;5.03;;;4.63;;
44664;SDS011;30382;48.802;9.388;2022-09-24T16:26:14;5.43;;;4.93;;
44664;SDS011;30382;48.802;9.388;2022-09-24T16:29:00;6.10;;;5.60;;
44664;SDS011;30382;48.802;9.388;2022-09-24T16:31:44;4.97;;;4.47;;
44664;SDS011;30382;48.802;9.388;2022-09-24T16:34:29;5.40;;;5.00;;
44664;SDS011;30382;48.802;9.388;2022-09-24T16:37:14;5.77;;;5.30;;
44664;SDS011;30382;48.802;9.388;2022-09-24T16:40:00;7.13;;;6.53;;
44664;SDS011;30382;48.802;9.388;2022-09-24T16:42:46;7.57;;;6.87;;
44664;SDS011;30382;48.802;9.388;2022-09-24T16:45:31;7.80;;;7.10;;
44664;SDS011;30382;48.802;9.388;2022-09-24T16:48:15;6.17;;;5.57;;
44664;SDS011;30382;48.802;9.388;2022-09-24T16:51:00;6.60;;;5.77;;
44664;SDS011;30382;48.802;9.388;2022-09-24T16:53:46;6.93;;;6.33;;
44664;SDS011;30382;48.802;9.388;2022-09-24T16:56:30;6.07;;;5.57;;
44664;SDS011;30382;48.802;9.388;2022-09-24T16:59:15;7.20;;;6.60;;
44664;SDS011;30382;48.802;9.388;2022-09-24T17:01:59;5.80;;;5.33;;
44664;SDS011;30382;48.802;9.388;2022-09-24T17:04:43;5.83;;;5.27;;
44664;SDS011;30382;48.802;9.388;2022-09-24T17:07:28;6.57;;;5.97;;
44664;SDS011;30382;48.802;9.388;2022-09-24T17:10:13;11.07;;;10.07;;
44664;SDS011;30382;48.802;9.388;2022-09-24T17:12:58;10.40;;;9.40;;
44664;SDS011;30382;48.802;9.388;2022-09-24T17:15:44;15.17;;;9.50;;
44664;SDS011;30382;48.802;9.388;2022-09-24T17:18:28;10.93;;;8.90;;
44664;SDS011;30382;48.802;9.388;2022-09-24T17:21:12;15.57;;;10.07;;
44664;SDS011;30382;48.802;9.388;2022-09-24T17:23:57;8.33;;;7.63;;
44664;SDS011;30382;48.802;9.388;2022-09-24T17:26:41;7.37;;;6.70;;
44664;SDS011;30382;48.802;9.388;2022-09-24T17:29:26;7.17;;;6.57;;
44664;SDS011;30382;48.802;9.388;2022-09-24T17:32:10;7.50;;;6.80;;
44664;SDS011;30382;48.802;9.388;2022-09-24T17:34:54;8.60;;;7.83;;
44664;SDS011;30382;48.802;9.388;2022-09-24T17:37:40;10.00;;;9.10;;
44664;SDS011;30382;48.802;9.388;2022-09-24T17:40:24;8.63;;;7.93;;
44664;SDS011;30382;48.802;9.388;2022-09-24T17:43:09;8.03;;;7.33;;
44664;SDS011;30382;48.802;9.388;2022-09-24T17:45:54;10.13;;;9.23;;
44664;SDS011;30382;48.802;9.388;2022-09-24T17:48:39;12.00;;;9.27;;
44664;SDS011;30382;48.802;9.388;2022-09-24T17:51:30;8.73;;;7.43;;
44664;SDS011;30382;48.802;9.388;2022-09-24T17:54:19;8.70;;;7.90;;
44664;SDS011;30382;48.802;9.388;2022-09-24T17:57:06;8.77;;;7.97;;
44664;SDS011;30382;48.802;9.388;2022-09-24T17:59:50;11.93;;;9.30;;
44664;SDS011;30382;48.802;9.388;2022-09-24T18:02:36;10.03;;;9.03;;
44664;SDS011;30382;48.802;9.388;2022-09-24T18:05:20;8.43;;;7.60;;
44664;SDS011;30382;48.802;9.388;2022-09-24T18:08:05;9.40;;;8.50;;
44664;SDS011;30382;48.802;9.388;2022-09-24T18:10:58;9.40;;;8.50;;
44664;SDS011;30382;48.802;9.388;2022-09-24T18:13:43;9.17;;;8.40;;
44664;SDS011;30382;48.802;9.388;2022-09-24T18:16:28;8.30;;;7.60;;
44664;SDS011;30382;48.802;9.388;2022-09-24T18:19:12;9.27;;;8.37;;
44664;SDS011;30382;48.802;9.388;2022-09-24T18:21:58;10.23;;;8.30;;
44664;SDS011;30382;48.802;9.388;2022-09-24T18:24:43;11.20;;;10.10;;
44664;SDS011;30382;48.802;9.388;2022-09-24T18:27:28;8.37;;;7.47;;